sensor_id;sensor_type;location;lat;lon;timestamp;P1;durP1;ratioP1;P2;durP2;ratioP2
7841;SDS011;3966;51.052;13.820;2023-06-10T00:00:38;0.10;;;0.10;;
7841;SDS011;3966;51.052;13.820;2023-06-10T00:03:06;0.10;;;0.10;;
7841;SDS011;3966;51.052;13.820;2023-06-10T00:05:33;0.10;;;0.10;;
7841;SDS011;3966;51.052;13.820;2023-06-10T00:08:00;0.00;;;0.00;;
7841;SDS011;3966;51.052;13.820;2023-06-10T00:10:32;0.00;;;0.00;;
7841;SDS011;3966;51.052;13.820;2023-06-10T00:13:02;0.00;;;0.00;;
7841;SDS011;3966;51.052;13.820;2023-06-10T00:15:30;0.00;;;0.00;;
7841;SDS011;3966;51.052;13.820;2023-06-10T00:17:55;0.10;;;0.10;;
7841;SDS011;3966;51.052;13.820;2023-06-10T00:20:21;0.00;;;0.00;;
7841;SDS011;3966;51.052;13.820;2023-06-10T00:22:49;0.00;;;0.00;;
7841;SDS011;3966;51.052;13.820;2023-06-10T00:25:14;0.10;;;0.10;;
7841;SDS011;3966;51.052;13.820;2023-06-10T00:27:40;0.00;;;0.00;;
7841;SDS011;3966;51.052;13.820;2023-06-10T00:30:06;0.00;;;0.00;;
7841;SDS011;3966;51.052;13.820;2023-06-10T00:32:33;0.10;;;0.10;;
7841;SDS011;3966;51.052;13.820;2023-06-10T00:34:58;0.00;;;0.00;;
7841;SDS011;3966;51.052;13.820;2023-06-10T00:37:24;0.00;;;0.00;;
7841;SDS011;3966;51.052;13.820;2023-06-10T00:39:50;0.00;;;0.00;;
7841;SDS011;3966;51.052;13.820;2023-06-10T00:42:16;0.00;;;0.00;;
7841;SDS011;3966;51.052;13.820;2023-06-10T00:44:42;0.00;;;0.00;;
7841;SDS011;3966;51.052;13.820;2023-06-10T00:47:07;0.00;;;0.00;;
7841;SDS011;3966;51.052;13.820;2023-06-10T00:49:33;0.05;;;0.05;;
7841;SDS011;3966;51.052;13.820;2023-06-10T00:52:00;0.00;;;0.00;;
7841;SDS011;3966;51.052;13.820;2023-06-10T00:54:27;0.10;;;0.10;;
7841;SDS011;3966;51.052;13.820;2023-06-10T00:56:53;0.00;;;0.00;;
7841;SDS011;3966;51.052;13.820;2023-06-10T00:59:20;0.00;;;0.00;;
7841;SDS011;3966;51.052;13.820;2023-06-10T01:01:45;0.00;;;0.00;;
7841;SDS011;3966;51.052;13.820;2023-06-10T01:04:12;0.00;;;0.00;;
7841;SDS011;3966;51.052;13.820;2023-06-10T01:06:41;0.00;;;0.00;;
7841;SDS011;3966;51.052;13.820;2023-06-10T01:14:48;0.10;;;0.10;;
7841;SDS011;3966;51.052;13.820;2023-06-10T01:17:16;0.00;;;0.00;;
7841;SDS011;3966;51.052;13.820;2023-06-10T01:19:43;0.00;;;0.00;;
7841;SDS011;3966;51.052;13.820;2023-06-10T01:22:09;0.00;;;0.00;;
7841;SDS011;3966;51.052;13.820;2023-06-10T01:24:35;0.00;;;0.00;;
7841;SDS011;3966;51.052;13.820;2023-06-10T01:27:02;0.00;;;0.00;;
7841;SDS011;3966;51.052;13.820;2023-06-10T01:29:36;0.10;;;0.10;;
7841;SDS011;3966;51.052;13.820;2023-06-10T01:32:27;0.00;;;0.00;;
7841;SDS011;3966;51.052;13.820;2023-06-10T01:34:58;0.00;;;0.00;;
7841;SDS011;3966;51.052;13.820;2023-06-10T01:37:25;0.10;;;0.10;;
7841;SDS011;3966;51.052;13.820;2023-06-10T01:39:51;0.10;;;0.10;;
7841;SDS011;3966;51.052;13.820;2023-06-10T01:42:19;0.00;;;0.00;;
7841;SDS011;3966;51.052;13.820;2023-06-10T01:44:46;0.00;;;0.00;;
7841;SDS011;3966;51.052;13.820;2023-06-10T01:47:11;0.00;;;0.00;;
7841;SDS011;3966;51.052;13.820;2023-06-10T01:49:37;0.00;;;0.00;;
7841;SDS011;3966;51.052;13.820;2023-06-10T01:52:03;0.10;;;0.10;;
7841;SDS011;3966;51.052;13.820;2023-06-10T01:54:29;0.00;;;0.00;;
7841;SDS011;3966;51.052;13.820;2023-06-10T01:56:54;0.00;;;0.00;;
7841;SDS011;3966;51.052;13.820;2023-06-10T01:59:20;0.10;;;0.10;;
7841;SDS011;3966;51.052;13.820;2023-06-10T02:01:45;0.00;;;0.00;;
7841;SDS011;3966;51.052;13.820;2023-06-10T02:04:11;0.00;;;0.00;;
7841;SDS011;3966;51.052;13.820;2023-06-10T02:06:37;0.00;;;0.00;;
7841;SDS011;3966;51.052;13.820;2023-06-10T02:09:02;0.10;;;0.10;;
7841;SDS011;3966;51.052;13.820;2023-06-10T02:11:28;0.00;;;0.00;;
7841;SDS011;3966;51.052;13.820;2023-06-10T02:13:54;0.00;;;0.00;;
7841;SDS011;3966;51.052;13.820;2023-06-10T02:16:20;0.00;;;0.00;;
7841;SDS011;3966;51.052;13.820;2023-06-10T02:18:46;0.00;;;0.00;;
7841;SDS011;3966;51.052;13.820;2023-06-10T02:21:13;0.00;;;0.00;;
7841;SDS011;3966;51.052;13.820;2023-06-10T02:23:39;0.00;;;0.00;;
7841;SDS011;3966;51.052;13.820;2023-06-10T02:26:05;0.10;;;0.10;;
7841;SDS011;3966;51.052;13.820;2023-06-10T02:28:31;0.00;;;0.00;;
7841;SDS011;3966;51.052;13.820;2023-06-10T02:30:56;0.00;;;0.00;;
7841;SDS011;3966;51.052;13.820;2023-06-10T02:33:23;0.00;;;0.00;;
7841;SDS011;3966;51.052;13.820;2023-06-10T02:35:49;0.00;;;0.00;;
7841;SDS011;3966;51.052;13.820;2023-06-10T02:38:16;0.00;;;0.00;;
7841;SDS011;3966;51.052;13.820;2023-06-10T02:40:42;0.00;;;0.00;;
7841;SDS011;3966;51.052;13.820;2023-06-10T02:43:08;0.00;;;0.00;;
7841;SDS011;3966;51.052;13.820;2023-06-10T02:45:34;0.00;;;0.00;;
7841;SDS011;3966;51.052;13.820;2023-06-10T02:48:00;0.00;;;0.00;;
7841;SDS011;3966;51.052;13.820;2023-06-10T02:50:25;0.00;;;0.00;;
7841;SDS011;3966;51.052;13.820;2023-06-10T02:52:51;0.00;;;0.00;;
7841;SDS011;3966;51.052;13.820;2023-06-10T02:55:16;0.00;;;0.00;;
7841;SDS011;3966;51.052;13.820;2023-06-10T02:57:42;0.00;;;0.00;;
7841;SDS011;3966;51.052;13.820;2023-06-10T03:00:08;0.00;;;0.00;;
7841;SDS011;3966;51.052;13.820;2023-06-10T03:02:35;0.03;;;0.03;;
7841;SDS011;3966;51.052;13.820;2023-06-10T03:05:02;0.00;;;0.00;;
7841;SDS011;3966;51.052;13.820;2023-06-10T03:07:28;0.00;;;0.00;;
7841;SDS011;3966;51.052;13.820;2023-06-10T03:09:53;0.10;;;0.10;;
7841;SDS011;3966;51.052;13.820;2023-06-10T03:12:19;0.00;;;0.00;;
7841;SDS011;3966;51.052;13.820;2023-06-10T03:14:45;0.00;;;0.00;;
7841;SDS011;3966;51.052;13.820;2023-06-10T03:17:10;0.05;;;0.05;;
7841;SDS011;3966;51.052;13.820;2023-06-10T03:19:36;0.00;;;0.00;;
7841;SDS011;3966;51.052;13.820;2023-06-10T03:22:12;0.00;;;0.00;;
7841;SDS011;3966;51.052;13.820;2023-06-10T03:24:39;0.00;;;0.00;;
7841;SDS011;3966;51.052;13.820;2023-06-10T03:27:08;0.00;;;0.00;;
7841;SDS011;3966;51.052;13.820;2023-06-10T03:29:36;0.00;;;0.00;;
7841;SDS011;3966;51.052;13.820;2023-06-10T03:32:02;0.00;;;0.00;;
7841;SDS011;3966;51.052;13.820;2023-06-10T03:34:28;0.00;;;0.00;;
7841;SDS011;3966;51.052;13.820;2023-06-10T03:36:55;0.00;;;0.00;;
7841;SDS011;3966;51.052;13.820;2023-06-10T03:39:21;0.00;;;0.00;;
7841;SDS011;3966;51.052;13.820;2023-06-10T03:41:48;0.00;;;0.00;;
7841;SDS011;3966;51.052;13.820;2023-06-10T03:44:14;0.00;;;0.00;;
7841;SDS011;3966;51.052;13.820;2023-06-10T03:46:40;0.10;;;0.10;;
7841;SDS011;3966;51.052;13.820;2023-06-10T03:49:06;0.00;;;0.00;;
7841;SDS011;3966;51.052;13.820;2023-06-10T03:51:32;0.00;;;0.00;;
7841;SDS011;3966;51.052;13.820;2023-06-10T03:53:57;0.00;;;0.00;;
7841;SDS011;3966;51.052;13.820;2023-06-10T03:56:23;0.10;;;0.10;;
7841;SDS011;3966;51.052;13.820;2023-06-10T03:58:49;0.00;;;0.00;;
7841;SDS011;3966;51.052;13.820;2023-06-10T04:01:14;0.00;;;0.00;;
7841;SDS011;3966;51.052;13.820;2023-06-10T04:03:40;0.00;;;0.00;;
7841;SDS011;3966;51.052;13.820;2023-06-10T04:06:08;0.10;;;0.10;;
7841;SDS011;3966;51.052;13.820;2023-06-10T04:08:34;0.00;;;0.00;;
7841;SDS011;3966;51.052;13.820;2023-06-10T04:11:01;0.00;;;0.00;;
7841;SDS011;3966;51.052;13.820;2023-06-10T04:13:27;0.10;;;0.10;;
7841;SDS011;3966;51.052;13.820;2023-06-10T04:15:53;0.00;;;0.00;;
7841;SDS011;3966;51.052;13.820;2023-06-10T04:18:19;0.00;;;0.00;;
7841;SDS011;3966;51.052;13.820;2023-06-10T04:20:46;0.00;;;0.00;;
7841;SDS011;3966;51.052;13.820;2023-06-10T04:23:12;0.00;;;0.00;;
7841;SDS011;3966;51.052;13.820;2023-06-10T04:25:38;0.00;;;0.00;;
7841;SDS011;3966;51.052;13.820;2023-06-10T04:28:03;0.00;;;0.00;;
7841;SDS011;3966;51.052;13.820;2023-06-10T04:30:29;0.00;;;0.00;;
7841;SDS011;3966;51.052;13.820;2023-06-10T04:32:56;0.10;;;0.10;;
7841;SDS011;3966;51.052;13.820;2023-06-10T04:35:22;0.00;;;0.00;;
7841;SDS011;3966;51.052;13.820;2023-06-10T04:37:47;0.10;;;0.10;;
7841;SDS011;3966;51.052;13.820;2023-06-10T04:40:13;0.10;;;0.10;;
7841;SDS011;3966;51.052;13.820;2023-06-10T04:42:40;0.10;;;0.10;;
7841;SDS011;3966;51.052;13.820;2023-06-10T04:45:06;0.00;;;0.00;;
7841;SDS011;3966;51.052;13.820;2023-06-10T04:47:33;0.00;;;0.00;;
7841;SDS011;3966;51.052;13.820;2023-06-10T04:49:59;0.00;;;0.00;;
7841;SDS011;3966;51.052;13.820;2023-06-10T04:52:25;0.00;;;0.00;;
7841;SDS011;3966;51.052;13.820;2023-06-10T04:54:52;0.00;;;0.00;;
7841;SDS011;3966;51.052;13.820;2023-06-10T04:57:19;0.00;;;0.00;;
7841;SDS011;3966;51.052;13.820;2023-06-10T04:59:45;0.10;;;0.10;;
7841;SDS011;3966;51.052;13.820;2023-06-10T05:02:11;0.10;;;0.10;;
7841;SDS011;3966;51.052;13.820;2023-06-10T05:04:37;0.10;;;0.10;;
7841;SDS011;3966;51.052;13.820;2023-06-10T05:07:02;0.00;;;0.00;;
7841;SDS011;3966;51.052;13.820;2023-06-10T05:09:28;0.10;;;0.10;;
7841;SDS011;3966;51.052;13.820;2023-06-10T05:11:55;0.10;;;0.10;;
7841;SDS011;3966;51.052;13.820;2023-06-10T05:14:20;0.00;;;0.00;;
7841;SDS011;3966;51.052;13.820;2023-06-10T05:16:47;0.00;;;0.00;;
7841;SDS011;3966;51.052;13.820;2023-06-10T05:19:13;0.10;;;0.10;;
7841;SDS011;3966;51.052;13.820;2023-06-10T05:21:39;0.00;;;0.00;;
7841;SDS011;3966;51.052;13.820;2023-06-10T05:24:04;0.10;;;0.10;;
7841;SDS011;3966;51.052;13.820;2023-06-10T05:26:31;0.00;;;0.00;;
7841;SDS011;3966;51.052;13.820;2023-06-10T05:28:58;0.00;;;0.00;;
7841;SDS011;3966;51.052;13.820;2023-06-10T05:31:23;0.10;;;0.10;;
7841;SDS011;3966;51.052;13.820;2023-06-10T05:33:49;0.00;;;0.00;;
7841;SDS011;3966;51.052;13.820;2023-06-10T05:36:15;0.10;;;0.10;;
7841;SDS011;3966;51.052;13.820;2023-06-10T05:38:41;0.00;;;0.00;;
7841;SDS011;3966;51.052;13.820;2023-06-10T05:41:06;0.10;;;0.10;;
7841;SDS011;3966;51.052;13.820;2023-06-10T05:43:32;0.00;;;0.00;;
7841;SDS011;3966;51.052;13.820;2023-06-10T05:45:57;0.00;;;0.00;;
7841;SDS011;3966;51.052;13.820;2023-06-10T05:48:23;0.00;;;0.00;;
7841;SDS011;3966;51.052;13.820;2023-06-10T05:50:49;0.00;;;0.00;;
7841;SDS011;3966;51.052;13.820;2023-06-10T05:53:15;0.00;;;0.00;;
7841;SDS011;3966;51.052;13.820;2023-06-10T05:55:44;0.00;;;0.00;;
7841;SDS011;3966;51.052;13.820;2023-06-10T05:58:10;0.10;;;0.10;;
7841;SDS011;3966;51.052;13.820;2023-06-10T06:00:37;0.00;;;0.00;;
7841;SDS011;3966;51.052;13.820;2023-06-10T06:03:06;0.10;;;0.10;;
7841;SDS011;3966;51.052;13.820;2023-06-10T06:05:35;0.00;;;0.00;;
7841;SDS011;3966;51.052;13.820;2023-06-10T06:08:06;0.00;;;0.00;;
7841;SDS011;3966;51.052;13.820;2023-06-10T06:10:34;0.00;;;0.00;;
7841;SDS011;3966;51.052;13.820;2023-06-10T06:13:00;0.10;;;0.10;;
7841;SDS011;3966;51.052;13.820;2023-06-10T06:15:27;0.00;;;0.00;;
7841;SDS011;3966;51.052;13.820;2023-06-10T06:17:52;0.10;;;0.10;;
7841;SDS011;3966;51.052;13.820;2023-06-10T06:20:21;0.10;;;0.10;;
7841;SDS011;3966;51.052;13.820;2023-06-10T06:22:47;0.10;;;0.10;;
7841;SDS011;3966;51.052;13.820;2023-06-10T06:25:13;0.00;;;0.00;;
7841;SDS011;3966;51.052;13.820;2023-06-10T06:27:39;0.00;;;0.00;;
7841;SDS011;3966;51.052;13.820;2023-06-10T06:30:05;0.00;;;0.00;;
7841;SDS011;3966;51.052;13.820;2023-06-10T06:32:31;0.00;;;0.00;;
7841;SDS011;3966;51.052;13.820;2023-06-10T06:34:56;0.00;;;0.00;;
7841;SDS011;3966;51.052;13.820;2023-06-10T06:37:25;0.00;;;0.00;;
7841;SDS011;3966;51.052;13.820;2023-06-10T06:39:51;0.10;;;0.10;;
7841;SDS011;3966;51.052;13.820;2023-06-10T06:42:18;0.00;;;0.00;;
7841;SDS011;3966;51.052;13.820;2023-06-10T06:44:44;0.00;;;0.00;;
7841;SDS011;3966;51.052;13.820;2023-06-10T06:47:10;0.00;;;0.00;;
7841;SDS011;3966;51.052;13.820;2023-06-10T06:49:35;0.00;;;0.00;;
7841;SDS011;3966;51.052;13.820;2023-06-10T06:52:01;0.00;;;0.00;;
7841;SDS011;3966;51.052;13.820;2023-06-10T06:54:27;0.00;;;0.00;;
7841;SDS011;3966;51.052;13.820;2023-06-10T06:56:53;0.10;;;0.10;;
7841;SDS011;3966;51.052;13.820;2023-06-10T06:59:18;0.00;;;0.00;;
7841;SDS011;3966;51.052;13.820;2023-06-10T07:01:44;0.10;;;0.10;;
7841;SDS011;3966;51.052;13.820;2023-06-10T07:04:11;0.10;;;0.10;;
7841;SDS011;3966;51.052;13.820;2023-06-10T07:06:36;0.00;;;0.00;;
7841;SDS011;3966;51.052;13.820;2023-06-10T07:09:03;0.00;;;0.00;;
7841;SDS011;3966;51.052;13.820;2023-06-10T07:11:29;0.00;;;0.00;;
7841;SDS011;3966;51.052;13.820;2023-06-10T07:13:55;0.10;;;0.10;;
7841;SDS011;3966;51.052;13.820;2023-06-10T07:16:21;0.00;;;0.00;;
7841;SDS011;3966;51.052;13.820;2023-06-10T07:18:47;0.00;;;0.00;;
7841;SDS011;3966;51.052;13.820;2023-06-10T07:21:12;0.00;;;0.00;;
7841;SDS011;3966;51.052;13.820;2023-06-10T07:23:41;0.00;;;0.00;;
7841;SDS011;3966;51.052;13.820;2023-06-10T07:26:07;0.00;;;0.00;;
7841;SDS011;3966;51.052;13.820;2023-06-10T07:28:36;0.05;;;0.05;;
7841;SDS011;3966;51.052;13.820;2023-06-10T07:31:02;0.10;;;0.10;;
7841;SDS011;3966;51.052;13.820;2023-06-10T07:33:28;0.00;;;0.00;;
7841;SDS011;3966;51.052;13.820;2023-06-10T07:35:53;0.00;;;0.00;;
7841;SDS011;3966;51.052;13.820;2023-06-10T07:38:19;0.10;;;0.10;;
7841;SDS011;3966;51.052;13.820;2023-06-10T07:40:45;0.00;;;0.00;;
7841;SDS011;3966;51.052;13.820;2023-06-10T07:43:11;0.10;;;0.10;;
7841;SDS011;3966;51.052;13.820;2023-06-10T07:45:36;0.00;;;0.00;;
7841;SDS011;3966;51.052;13.820;2023-06-10T07:48:05;0.00;;;0.00;;
7841;SDS011;3966;51.052;13.820;2023-06-10T07:50:30;0.10;;;0.10;;
7841;SDS011;3966;51.052;13.820;2023-06-10T07:52:56;0.00;;;0.00;;
7841;SDS011;3966;51.052;13.820;2023-06-10T07:55:22;0.00;;;0.00;;
7841;SDS011;3966;51.052;13.820;2023-06-10T07:57:47;0.00;;;0.00;;
7841;SDS011;3966;51.052;13.820;2023-06-10T08:00:13;0.10;;;0.10;;
7841;SDS011;3966;51.052;13.820;2023-06-10T08:02:39;0.00;;;0.00;;
7841;SDS011;3966;51.052;13.820;2023-06-10T08:05:05;0.00;;;0.00;;
7841;SDS011;3966;51.052;13.820;2023-06-10T08:07:31;0.00;;;0.00;;
7841;SDS011;3966;51.052;13.820;2023-06-10T08:09:56;0.00;;;0.00;;
7841;SDS011;3966;51.052;13.820;2023-06-10T08:12:22;0.00;;;0.00;;
7841;SDS011;3966;51.052;13.820;2023-06-10T08:14:48;0.00;;;0.00;;
7841;SDS011;3966;51.052;13.820;2023-06-10T08:17:14;0.10;;;0.10;;
7841;SDS011;3966;51.052;13.820;2023-06-10T08:19:39;0.00;;;0.00;;
7841;SDS011;3966;51.052;13.820;2023-06-10T08:22:05;0.00;;;0.00;;
7841;SDS011;3966;51.052;13.820;2023-06-10T08:24:31;0.00;;;0.00;;
7841;SDS011;3966;51.052;13.820;2023-06-10T08:26:57;0.00;;;0.00;;
7841;SDS011;3966;51.052;13.820;2023-06-10T08:29:23;0.10;;;0.10;;
7841;SDS011;3966;51.052;13.820;2023-06-10T08:31:49;0.00;;;0.00;;
7841;SDS011;3966;51.052;13.820;2023-06-10T08:34:14;0.10;;;0.10;;
7841;SDS011;3966;51.052;13.820;2023-06-10T08:36:40;0.10;;;0.10;;
7841;SDS011;3966;51.052;13.820;2023-06-10T08:39:06;0.00;;;0.00;;
7841;SDS011;3966;51.052;13.820;2023-06-10T08:41:35;0.05;;;0.05;;
7841;SDS011;3966;51.052;13.820;2023-06-10T08:47:04;0.10;;;0.10;;
7841;SDS011;3966;51.052;13.820;2023-06-10T08:49:34;0.10;;;0.10;;
7841;SDS011;3966;51.052;13.820;2023-06-10T08:52:06;0.10;;;0.10;;
7841;SDS011;3966;51.052;13.820;2023-06-10T08:54:33;0.00;;;0.00;;
7841;SDS011;3966;51.052;13.820;2023-06-10T08:57:02;0.00;;;0.00;;
7841;SDS011;3966;51.052;13.820;2023-06-10T08:59:33;0.00;;;0.00;;
7841;SDS011;3966;51.052;13.820;2023-06-10T09:01:59;0.10;;;0.10;;
7841;SDS011;3966;51.052;13.820;2023-06-10T09:04:27;0.10;;;0.10;;
7841;SDS011;3966;51.052;13.820;2023-06-10T09:06:53;0.10;;;0.10;;
7841;SDS011;3966;51.052;13.820;2023-06-10T09:09:19;0.00;;;0.00;;
7841;SDS011;3966;51.052;13.820;2023-06-10T09:11:45;0.10;;;0.10;;
7841;SDS011;3966;51.052;13.820;2023-06-10T09:14:11;0.05;;;0.05;;
7841;SDS011;3966;51.052;13.820;2023-06-10T09:16:38;0.10;;;0.10;;
7841;SDS011;3966;51.052;13.820;2023-06-10T09:19:05;0.10;;;0.10;;
7841;SDS011;3966;51.052;13.820;2023-06-10T09:21:34;0.10;;;0.10;;
7841;SDS011;3966;51.052;13.820;2023-06-10T09:24:00;0.10;;;0.10;;
7841;SDS011;3966;51.052;13.820;2023-06-10T09:26:29;0.10;;;0.10;;
7841;SDS011;3966;51.052;13.820;2023-06-10T09:29:04;0.00;;;0.00;;
7841;SDS011;3966;51.052;13.820;2023-06-10T09:31:32;0.10;;;0.10;;
7841;SDS011;3966;51.052;13.820;2023-06-10T09:34:11;0.00;;;0.00;;
7841;SDS011;3966;51.052;13.820;2023-06-10T09:36:38;0.10;;;0.10;;
7841;SDS011;3966;51.052;13.820;2023-06-10T09:39:04;0.10;;;0.10;;
7841;SDS011;3966;51.052;13.820;2023-06-10T09:41:41;0.10;;;0.10;;
7841;SDS011;3966;51.052;13.820;2023-06-10T09:44:13;0.10;;;0.10;;
7841;SDS011;3966;51.052;13.820;2023-06-10T09:46:41;0.10;;;0.10;;
7841;SDS011;3966;51.052;13.820;2023-06-10T09:49:07;0.10;;;0.10;;
7841;SDS011;3966;51.052;13.820;2023-06-10T09:51:33;0.10;;;0.10;;
7841;SDS011;3966;51.052;13.820;2023-06-10T09:53:59;0.10;;;0.10;;
7841;SDS011;3966;51.052;13.820;2023-06-10T09:56:34;0.10;;;0.10;;
7841;SDS011;3966;51.052;13.820;2023-06-10T09:59:00;0.10;;;0.10;;
7841;SDS011;3966;51.052;13.820;2023-06-10T10:01:27;0.10;;;0.10;;
7841;SDS011;3966;51.052;13.820;2023-06-10T10:03:55;0.10;;;0.10;;
7841;SDS011;3966;51.052;13.820;2023-06-10T10:06:21;0.10;;;0.10;;
7841;SDS011;3966;51.052;13.820;2023-06-10T10:08:47;0.10;;;0.10;;
7841;SDS011;3966;51.052;13.820;2023-06-10T10:11:16;0.10;;;0.10;;
7841;SDS011;3966;51.052;13.820;2023-06-10T10:13:43;0.10;;;0.10;;
7841;SDS011;3966;51.052;13.820;2023-06-10T10:16:37;0.10;;;0.10;;
7841;SDS011;3966;51.052;13.820;2023-06-10T10:19:40;0.10;;;0.10;;
7841;SDS011;3966;51.052;13.820;2023-06-10T10:22:03;0.10;;;0.10;;
7841;SDS011;3966;51.052;13.820;2023-06-10T10:24:36;0.10;;;0.10;;
7841;SDS011;3966;51.052;13.820;2023-06-10T10:27:09;0.10;;;0.10;;
7841;SDS011;3966;51.052;13.820;2023-06-10T10:29:42;0.10;;;0.10;;
7841;SDS011;3966;51.052;13.820;2023-06-10T10:32:12;0.10;;;0.10;;
7841;SDS011;3966;51.052;13.820;2023-06-10T10:34:43;0.10;;;0.10;;
7841;SDS011;3966;51.052;13.820;2023-06-10T10:37:17;0.10;;;0.10;;
7841;SDS011;3966;51.052;13.820;2023-06-10T10:39:45;0.10;;;0.10;;
7841;SDS011;3966;51.052;13.820;2023-06-10T10:42:11;0.10;;;0.10;;
7841;SDS011;3966;51.052;13.820;2023-06-10T10:44:38;0.10;;;0.10;;
7841;SDS011;3966;51.052;13.820;2023-06-10T10:47:06;0.10;;;0.10;;
7841;SDS011;3966;51.052;13.820;2023-06-10T10:49:37;0.10;;;0.10;;
7841;SDS011;3966;51.052;13.820;2023-06-10T10:52:03;0.10;;;0.10;;
7841;SDS011;3966;51.052;13.820;2023-06-10T10:54:32;0.10;;;0.10;;
7841;SDS011;3966;51.052;13.820;2023-06-10T11:02:37;0.10;;;0.10;;
7841;SDS011;3966;51.052;13.820;2023-06-10T11:05:10;0.10;;;0.10;;
7841;SDS011;3966;51.052;13.820;2023-06-10T11:07:38;0.10;;;0.10;;
7841;SDS011;3966;51.052;13.820;2023-06-10T11:10:11;0.10;;;0.10;;
7841;SDS011;3966;51.052;13.820;2023-06-10T11:12:50;0.10;;;0.10;;
7841;SDS011;3966;51.052;13.820;2023-06-10T11:15:27;0.10;;;0.10;;
7841;SDS011;3966;51.052;13.820;2023-06-10T11:18:06;0.10;;;0.10;;
7841;SDS011;3966;51.052;13.820;2023-06-10T11:20:57;0.10;;;0.10;;
7841;SDS011;3966;51.052;13.820;2023-06-10T11:31:23;0.10;;;0.10;;
7841;SDS011;3966;51.052;13.820;2023-06-10T11:33:52;0.10;;;0.10;;
7841;SDS011;3966;51.052;13.820;2023-06-10T11:36:25;0.10;;;0.10;;
7841;SDS011;3966;51.052;13.820;2023-06-10T11:38:59;0.20;;;0.20;;
7841;SDS011;3966;51.052;13.820;2023-06-10T11:41:26;0.10;;;0.10;;
7841;SDS011;3966;51.052;13.820;2023-06-10T11:43:52;0.20;;;0.20;;
7841;SDS011;3966;51.052;13.820;2023-06-10T11:46:21;0.10;;;0.10;;
7841;SDS011;3966;51.052;13.820;2023-06-10T11:48:54;0.10;;;0.10;;
7841;SDS011;3966;51.052;13.820;2023-06-10T11:51:20;0.20;;;0.20;;
7841;SDS011;3966;51.052;13.820;2023-06-10T11:53:49;0.20;;;0.20;;
7841;SDS011;3966;51.052;13.820;2023-06-10T11:56:22;0.20;;;0.20;;
7841;SDS011;3966;51.052;13.820;2023-06-10T11:58:57;0.20;;;0.20;;
7841;SDS011;3966;51.052;13.820;2023-06-10T12:01:29;0.20;;;0.20;;
7841;SDS011;3966;51.052;13.820;2023-06-10T12:04:03;0.10;;;0.10;;
7841;SDS011;3966;51.052;13.820;2023-06-10T12:11:49;0.10;;;0.10;;
7841;SDS011;3966;51.052;13.820;2023-06-10T12:17:42;0.20;;;0.20;;
7841;SDS011;3966;51.052;13.820;2023-06-10T12:20:08;0.10;;;0.10;;
7841;SDS011;3966;51.052;13.820;2023-06-10T12:22:50;0.20;;;0.20;;
7841;SDS011;3966;51.052;13.820;2023-06-10T12:25:15;0.20;;;0.20;;
7841;SDS011;3966;51.052;13.820;2023-06-10T12:27:49;0.20;;;0.20;;
7841;SDS011;3966;51.052;13.820;2023-06-10T12:30:22;0.10;;;0.10;;
7841;SDS011;3966;51.052;13.820;2023-06-10T12:32:49;0.20;;;0.20;;
7841;SDS011;3966;51.052;13.820;2023-06-10T12:35:17;0.20;;;0.20;;
7841;SDS011;3966;51.052;13.820;2023-06-10T12:37:54;0.10;;;0.10;;
7841;SDS011;3966;51.052;13.820;2023-06-10T12:42:54;0.20;;;0.20;;
7841;SDS011;3966;51.052;13.820;2023-06-10T12:45:31;0.20;;;0.20;;
7841;SDS011;3966;51.052;13.820;2023-06-10T12:48:07;0.20;;;0.20;;
7841;SDS011;3966;51.052;13.820;2023-06-10T12:50:54;0.20;;;0.20;;
7841;SDS011;3966;51.052;13.820;2023-06-10T12:53:21;0.20;;;0.20;;
7841;SDS011;3966;51.052;13.820;2023-06-10T12:55:48;0.20;;;0.20;;
7841;SDS011;3966;51.052;13.820;2023-06-10T12:58:14;0.20;;;0.20;;
7841;SDS011;3966;51.052;13.820;2023-06-10T13:00:40;0.20;;;0.20;;
7841;SDS011;3966;51.052;13.820;2023-06-10T13:03:07;0.20;;;0.20;;
7841;SDS011;3966;51.052;13.820;2023-06-10T13:05:37;0.20;;;0.20;;
7841;SDS011;3966;51.052;13.820;2023-06-10T13:08:04;0.20;;;0.20;;
7841;SDS011;3966;51.052;13.820;2023-06-10T13:10:32;0.20;;;0.20;;
7841;SDS011;3966;51.052;13.820;2023-06-10T13:12:58;0.20;;;0.20;;
7841;SDS011;3966;51.052;13.820;2023-06-10T13:15:25;0.20;;;0.20;;
7841;SDS011;3966;51.052;13.820;2023-06-10T13:17:51;0.20;;;0.20;;
7841;SDS011;3966;51.052;13.820;2023-06-10T13:20:17;0.10;;;0.10;;
7841;SDS011;3966;51.052;13.820;2023-06-10T13:22:44;0.20;;;0.20;;
7841;SDS011;3966;51.052;13.820;2023-06-10T13:25:10;0.10;;;0.10;;
7841;SDS011;3966;51.052;13.820;2023-06-10T13:27:36;0.20;;;0.20;;
7841;SDS011;3966;51.052;13.820;2023-06-10T13:30:04;0.20;;;0.20;;
7841;SDS011;3966;51.052;13.820;2023-06-10T13:32:31;0.20;;;0.20;;
7841;SDS011;3966;51.052;13.820;2023-06-10T13:34:56;0.20;;;0.20;;
7841;SDS011;3966;51.052;13.820;2023-06-10T13:37:22;0.20;;;0.20;;
7841;SDS011;3966;51.052;13.820;2023-06-10T13:39:48;0.20;;;0.20;;
7841;SDS011;3966;51.052;13.820;2023-06-10T13:42:18;0.20;;;0.20;;
7841;SDS011;3966;51.052;13.820;2023-06-10T13:44:45;0.20;;;0.20;;
7841;SDS011;3966;51.052;13.820;2023-06-10T13:47:12;0.20;;;0.20;;
7841;SDS011;3966;51.052;13.820;2023-06-10T13:49:38;0.20;;;0.20;;
7841;SDS011;3966;51.052;13.820;2023-06-10T13:52:05;0.20;;;0.20;;
7841;SDS011;3966;51.052;13.820;2023-06-10T13:54:31;0.20;;;0.20;;
7841;SDS011;3966;51.052;13.820;2023-06-10T13:56:56;0.20;;;0.20;;
7841;SDS011;3966;51.052;13.820;2023-06-10T13:59:22;0.20;;;0.20;;
7841;SDS011;3966;51.052;13.820;2023-06-10T14:01:48;0.30;;;0.30;;
7841;SDS011;3966;51.052;13.820;2023-06-10T14:04:13;0.20;;;0.20;;
7841;SDS011;3966;51.052;13.820;2023-06-10T14:06:39;0.20;;;0.20;;
7841;SDS011;3966;51.052;13.820;2023-06-10T14:09:05;0.20;;;0.20;;
7841;SDS011;3966;51.052;13.820;2023-06-10T14:11:30;0.20;;;0.20;;
7841;SDS011;3966;51.052;13.820;2023-06-10T14:13:56;0.20;;;0.20;;
7841;SDS011;3966;51.052;13.820;2023-06-10T14:16:22;0.20;;;0.20;;
7841;SDS011;3966;51.052;13.820;2023-06-10T14:18:48;0.20;;;0.20;;
7841;SDS011;3966;51.052;13.820;2023-06-10T14:21:16;0.30;;;0.30;;
7841;SDS011;3966;51.052;13.820;2023-06-10T14:23:42;0.20;;;0.20;;
7841;SDS011;3966;51.052;13.820;2023-06-10T14:26:08;0.20;;;0.20;;
7841;SDS011;3966;51.052;13.820;2023-06-10T14:28:34;0.30;;;0.30;;
7841;SDS011;3966;51.052;13.820;2023-06-10T14:31:00;0.20;;;0.20;;
7841;SDS011;3966;51.052;13.820;2023-06-10T14:33:26;0.22;;;0.22;;
7841;SDS011;3966;51.052;13.820;2023-06-10T14:35:52;0.30;;;0.30;;
7841;SDS011;3966;51.052;13.820;2023-06-10T14:38:17;0.30;;;0.30;;
7841;SDS011;3966;51.052;13.820;2023-06-10T14:40:43;0.20;;;0.20;;
7841;SDS011;3966;51.052;13.820;2023-06-10T14:43:09;0.30;;;0.30;;
7841;SDS011;3966;51.052;13.820;2023-06-10T14:45:38;0.30;;;0.30;;
7841;SDS011;3966;51.052;13.820;2023-06-10T14:48:05;0.22;;;0.22;;
7841;SDS011;3966;51.052;13.820;2023-06-10T14:50:32;0.30;;;0.30;;
7841;SDS011;3966;51.052;13.820;2023-06-10T14:52:58;0.25;;;0.25;;
7841;SDS011;3966;51.052;13.820;2023-06-10T14:55:24;0.30;;;0.30;;
7841;SDS011;3966;51.052;13.820;2023-06-10T14:57:50;0.20;;;0.20;;
7841;SDS011;3966;51.052;13.820;2023-06-10T15:00:16;0.20;;;0.20;;
7841;SDS011;3966;51.052;13.820;2023-06-10T15:02:46;0.20;;;0.20;;
7841;SDS011;3966;51.052;13.820;2023-06-10T15:05:14;0.22;;;0.22;;
7841;SDS011;3966;51.052;13.820;2023-06-10T15:07:41;0.30;;;0.30;;
7841;SDS011;3966;51.052;13.820;2023-06-10T15:10:08;0.20;;;0.20;;
7841;SDS011;3966;51.052;13.820;2023-06-10T15:12:34;0.20;;;0.20;;
7841;SDS011;3966;51.052;13.820;2023-06-10T15:15:00;0.20;;;0.20;;
7841;SDS011;3966;51.052;13.820;2023-06-10T15:17:27;0.28;;;0.28;;
7841;SDS011;3966;51.052;13.820;2023-06-10T15:19:52;0.20;;;0.20;;
7841;SDS011;3966;51.052;13.820;2023-06-10T15:22:18;0.20;;;0.20;;
7841;SDS011;3966;51.052;13.820;2023-06-10T15:24:43;0.20;;;0.20;;
7841;SDS011;3966;51.052;13.820;2023-06-10T15:27:09;0.20;;;0.20;;
7841;SDS011;3966;51.052;13.820;2023-06-10T15:29:35;0.25;;;0.25;;
7841;SDS011;3966;51.052;13.820;2023-06-10T15:32:01;0.20;;;0.20;;
7841;SDS011;3966;51.052;13.820;2023-06-10T15:34:26;0.25;;;0.25;;